Time;durP1;ratioP1;P1;durP2;ratioP2;P2;SDS_P1;SDS_P2;PMS_P1;PMS_P2;Temp;Humidity;BMP_temperature;BMP_pressure;BME280_temperature;BME280_humidity;BME280_pressure;Samples;Min_cycle;Max_cycle;Signal;HPM_P1;HPM_P2
2021/11/10 00:00:08;;;;;;;62.88;44.13;;;230.50;2252.80;;;;;;5055882;28;20075;-84
2021/11/10 00:02:34;;;;;;;65.50;44.65;;;205.60;2252.80;;;;;;5055825;28;20021;-84
2021/11/10 00:05:00;;;;;;;55.78;38.55;;;205.50;2252.80;;;;;;5056204;28;20028;-84
2021/11/10 00:07:26;;;;;;;56.72;40.47;;;205.50;2252.80;;;;;;5055968;28;20025;-84
2021/11/10 00:09:51;;;;;;;60.75;43.28;;;205.50;2252.80;;;;;;5055837;28;20029;-84
2021/11/10 00:12:17;;;;;;;59.08;42.95;;;205.50;2252.80;;;;;;5056063;28;20035;-84
2021/11/10 00:14:43;;;;;;;56.15;39.70;;;205.40;2252.80;;;;;;5055634;28;20021;-84
2021/11/10 00:17:08;;;;;;;61.83;45.45;;;205.50;2252.80;;;;;;5055989;28;20021;-83
2021/11/10 00:19:34;;;;;;;63.17;42.58;;;205.20;2252.80;;;;;;5073783;28;20405;-83
2021/11/10 00:22:00;;;;;;;64.97;45.92;;;205.40;2252.80;;;;;;5055827;28;20033;-84
2021/11/10 00:24:26;;;;;;;56.40;40.97;;;205.40;2252.80;;;;;;5059343;28;20485;-83
2021/11/10 00:26:52;;;;;;;59.15;41.75;;;205.20;2252.80;;;;;;5060004;28;20024;-84
2021/11/10 00:29:17;;;;;;;90.75;58.88;;;205.20;2252.80;;;;;;5059189;28;20024;-83
2021/11/10 00:31:43;;;;;;;86.43;57.58;;;205.10;2252.80;;;;;;5077285;28;20035;-84
2021/11/10 00:34:09;;;;;;;82.07;54.85;;;205.10;2252.80;;;;;;5059728;28;20115;-83
2021/11/10 00:36:35;;;;;;;72.72;49.65;;;205.10;2252.80;;;;;;5059770;28;20074;-84
2021/11/10 00:39:01;;;;;;;62.72;39.95;;;205.10;2252.80;;;;;;5059378;28;20063;-83
2021/11/10 00:41:27;;;;;;;47.10;31.33;;;205.10;2252.80;;;;;;5059390;28;20039;-82
2021/11/10 00:43:52;;;;;;;67.57;44.22;;;180.10;2252.80;;;;;;5059394;28;20028;-82
2021/11/10 00:46:18;;;;;;;48.90;32.72;;;179.90;2252.80;;;;;;5077247;28;20025;-82
2021/11/10 00:48:44;;;;;;;56.60;35.97;;;180.00;2252.80;;;;;;5077201;28;20154;-84
2021/11/10 00:51:10;;;;;;;81.15;49.75;;;180.10;2252.80;;;;;;5076515;28;20028;-83
2021/11/10 00:53:35;;;;;;;82.50;52.03;;;180.10;2252.80;;;;;;5077050;28;20029;-84
2021/11/10 00:56:02;;;;;;;78.30;48.63;;;180.10;2252.80;;;;;;5059095;28;20025;-83
2021/11/10 00:58:28;;;;;;;79.63;52.33;;;180.10;2252.80;;;;;;5058910;28;20024;-84
2021/11/10 01:00:54;;;;;;;77.53;50.65;;;204.80;2252.80;;;;;;5059283;28;20078;-84
2021/11/10 01:03:20;;;;;;;69.95;47.50;;;204.80;2252.80;;;;;;5059040;28;20386;-83
2021/11/10 01:05:46;;;;;;;71.32;46.92;;;180.10;2252.80;;;;;;5076812;28;20020;-83
2021/11/10 01:08:12;;;;;;;59.25;40.17;;;180.10;2252.80;;;;;;5058859;28;20035;-84
2021/11/10 01:10:38;;;;;;;74.25;44.10;;;180.10;2252.80;;;;;;5058777;28;20036;-83
2021/11/10 01:13:05;;;;;;;62.92;40.90;;;179.90;2252.80;;;;;;5058991;28;20032;-84
2021/11/10 01:15:31;;;;;;;83.07;53.20;;;180.00;2252.80;;;;;;5058670;28;20039;-83
2021/11/10 01:17:57;;;;;;;97.75;60.90;;;179.70;2252.80;;;;;;5058636;28;20029;-84
2021/11/10 01:20:24;;;;;;;93.82;63.15;;;179.80;2252.80;;;;;;5058488;28;20505;-84
2021/11/10 01:22:50;;;;;;;203.15;99.28;;;179.80;2252.80;;;;;;5058832;28;20028;-84
2021/11/10 01:25:16;;;;;;;146.23;77.30;;;179.60;2252.80;;;;;;5058208;28;20046;-84
2021/11/10 01:27:42;;;;;;;142.45;86.90;;;179.40;2252.80;;;;;;5058589;28;20032;-84
2021/11/10 01:30:10;;;;;;;140.95;80.43;;;179.20;2252.80;;;;;;5058325;28;20033;-84
2021/11/10 01:32:36;;;;;;;151.88;94.80;;;179.30;2252.80;;;;;;5076455;28;20478;-84
2021/11/10 01:35:02;;;;;;;142.40;80.60;;;179.40;2252.80;;;;;;5057311;28;20027;-84
2021/11/10 01:37:27;;;;;;;113.30;66.43;;;179.40;2252.80;;;;;;5058413;28;20114;-84
2021/11/10 01:39:53;;;;;;;58.45;40.85;;;179.40;2252.80;;;;;;5057770;28;20481;-84
2021/11/10 01:42:19;;;;;;;54.63;38.47;;;154.20;2252.80;;;;;;5075794;28;20051;-84
2021/11/10 01:44:45;;;;;;;56.00;37.60;;;154.00;2252.80;;;;;;5057964;28;20059;-84
2021/11/10 01:47:12;;;;;;;54.70;37.90;;;154.10;2252.80;;;;;;5057896;28;20033;-84
2021/11/10 01:49:40;;;;;;;76.05;49.28;;;154.30;2252.80;;;;;;5058066;28;20024;-84
2021/11/10 01:52:07;;;;;;;65.25;43.35;;;154.50;2252.80;;;;;;5057614;28;20473;-83
2021/11/10 01:54:35;;;;;;;63.45;39.78;;;154.10;2252.80;;;;;;5058047;28;20523;-84
2021/11/10 01:57:03;;;;;;;59.25;41.95;;;154.30;2252.80;;;;;;5057771;28;20111;-84
2021/11/10 01:59:32;;;;;;;89.47;55.88;;;154.50;2252.80;;;;;;5057513;28;20028;-84
2021/11/10 02:01:58;;;;;;;99.30;61.50;;;154.40;2252.80;;;;;;5057624;28;20024;-84
2021/11/10 02:04:29;;;;;;;89.25;56.10;;;154.30;2252.80;;;;;;5057927;28;20025;-84
2021/11/10 02:06:55;;;;;;;80.47;51.65;;;154.40;2252.80;;;;;;5057467;28;20024;-84
2021/11/10 02:09:23;;;;;;;67.38;42.55;;;154.50;2252.80;;;;;;5057488;28;20029;-84
2021/11/10 02:11:51;;;;;;;72.55;43.08;;;179.20;2252.80;;;;;;5057764;28;20029;-84
2021/11/10 02:14:23;;;;;;;86.18;46.95;;;154.50;2252.80;;;;;;5075234;28;20036;-83
2021/11/10 02:16:50;;;;;;;66.47;36.60;;;154.10;2252.80;;;;;;5057443;28;20036;-84
2021/11/10 02:19:17;;;;;;;69.75;40.70;;;154.10;2252.80;;;;;;5057501;28;20314;-84
2021/11/10 02:21:47;;;;;;;52.90;33.70;;;154.10;2252.80;;;;;;5057339;28;20031;-85
2021/11/10 02:24:14;;;;;;;48.75;32.08;;;153.80;2252.80;;;;;;5057405;28;20034;-85
2021/11/10 02:26:42;;;;;;;56.53;34.53;;;153.90;2252.80;;;;;;5057399;28;20029;-85
2021/11/10 02:29:16;;;;;;;52.33;33.75;;;154.10;2252.80;;;;;;5075087;28;20028;-84
2021/11/10 02:31:43;;;;;;;48.60;31.25;;;153.70;2252.80;;;;;;5057319;28;20076;-84
2021/11/10 02:34:08;;;;;;;53.35;32.13;;;153.60;2252.80;;;;;;5056882;28;20123;-84
2021/11/10 02:36:34;;;;;;;48.35;32.30;;;153.80;2252.80;;;;;;5057118;28;20116;-84
2021/11/10 02:39:06;;;;;;;49.97;33.03;;;153.70;2252.80;;;;;;5056745;28;20140;-85
2021/11/10 02:41:32;;;;;;;44.97;30.92;;;153.70;2252.80;;;;;;5056778;28;20024;-84
2021/11/10 02:43:58;;;;;;;50.45;31.95;;;153.80;2252.80;;;;;;5056915;28;20025;-85
2021/11/10 02:46:25;;;;;;;52.30;31.88;;;153.90;2252.80;;;;;;5056071;28;20488;-84
2021/11/10 02:48:51;;;;;;;41.95;30.75;;;153.90;2252.80;;;;;;5056806;28;20028;-84
2021/11/10 02:51:17;;;;;;;44.78;29.20;;;128.90;2252.80;;;;;;5056637;28;20029;-84
2021/11/10 02:53:43;;;;;;;80.10;47.50;;;153.80;2252.80;;;;;;5074852;28;20029;-84
2021/11/10 02:56:09;;;;;;;72.30;43.13;;;153.90;2252.80;;;;;;5056548;28;20029;-83
2021/11/10 02:58:37;;;;;;;77.22;46.00;;;153.80;2252.80;;;;;;5056595;28;20484;-84
2021/11/10 03:01:07;;;;;;;46.05;30.83;;;153.70;2252.80;;;;;;5056712;28;20033;-84
2021/11/10 03:03:33;;;;;;;42.22;29.67;;;153.90;2252.80;;;;;;5056346;28;20056;-84
2021/11/10 03:06:00;;;;;;;41.88;28.27;;;154.10;2252.80;;;;;;5056646;28;20020;-84
2021/11/10 03:08:26;;;;;;;47.13;27.73;;;154.10;2252.80;;;;;;5056338;28;20033;-85
2021/11/10 03:10:52;;;;;;;37.88;26.38;;;154.30;2252.80;;;;;;5074081;28;20037;-85
2021/11/10 03:13:18;;;;;;;36.60;26.63;;;154.50;2252.80;;;;;;5074296;28;20031;-85
2021/11/10 03:15:45;;;;;;;39.30;27.63;;;154.10;2252.80;;;;;;5056527;28;20472;-85
2021/11/10 03:18:12;;;;;;;48.42;29.38;;;154.20;2252.80;;;;;;5056285;28;20090;-85
2021/11/10 03:20:38;;;;;;;43.53;30.02;;;154.20;2252.80;;;;;;5056371;28;20032;-85
2021/11/10 03:23:05;;;;;;;48.13;31.02;;;154.30;2252.80;;;;;;5056316;28;20059;-84
2021/11/10 03:25:31;;;;;;;46.40;31.95;;;154.20;2252.80;;;;;;5056341;28;20028;-85
2021/11/10 03:27:57;;;;;;;48.05;31.95;;;154.10;2252.80;;;;;;5056230;28;20021;-85
2021/11/10 03:30:24;;;;;;;48.28;31.92;;;128.80;2252.80;;;;;;5055933;28;20060;-86
2021/11/10 03:32:51;;;;;;;49.25;30.73;;;128.60;2252.80;;;;;;5074122;28;20135;-85
2021/11/10 03:35:18;;;;;;;49.97;29.70;;;128.70;2252.80;;;;;;5056291;28;20484;-85
2021/11/10 03:37:44;;;;;;;47.28;31.30;;;153.70;2252.80;;;;;;5056162;28;20032;-85
2021/11/10 03:40:11;;;;;;;50.45;33.47;;;154.00;2252.80;;;;;;5055631;28;20049;-84
2021/11/10 03:42:37;;;;;;;56.65;36.97;;;154.00;2252.80;;;;;;5073767;28;20024;-85
2021/11/10 03:45:04;;;;;;;51.17;34.90;;;154.10;2252.80;;;;;;5056140;28;20024;-85
2021/11/10 03:47:29;;;;;;;52.40;35.03;;;154.20;2252.80;;;;;;5056039;28;20028;-85
2021/11/10 03:49:55;;;;;;;51.55;34.65;;;154.10;2252.80;;;;;;5056229;28;20033;-85
2021/11/10 03:52:21;;;;;;;61.58;38.28;;;154.10;2252.80;;;;;;5056065;28;20449;-86
2021/11/10 03:54:48;;;;;;;50.67;35.70;;;153.90;2252.80;;;;;;5056223;28;20108;-86
2021/11/10 03:57:14;;;;;;;47.10;32.97;;;153.70;2252.80;;;;;;5056178;28;20385;-85
2021/11/10 03:59:40;;;;;;;54.67;35.03;;;153.80;2252.80;;;;;;5060134;28;20033;-85
2021/11/10 04:02:07;;;;;;;48.72;32.40;;;153.60;2252.80;;;;;;5060420;28;20024;-86
2021/11/10 04:04:33;;;;;;;85.28;51.88;;;153.70;2252.80;;;;;;5060431;28;20020;-86
2021/11/10 04:06:59;;;;;;;75.68;48.35;;;128.90;2252.80;;;;;;5060114;28;20458;-86
2021/11/10 04:09:26;;;;;;;58.92;38.75;;;128.90;2252.80;;;;;;5078241;28;20056;-86
2021/11/10 04:11:52;;;;;;;46.53;33.47;;;128.90;2252.80;;;;;;5077970;28;20029;-86
2021/11/10 04:14:18;;;;;;;45.13;30.77;;;153.60;2252.80;;;;;;5059885;28;20024;-85
2021/11/10 04:16:44;;;;;;;40.75;28.80;;;128.90;2252.80;;;;;;5063304;28;20096;-83
2021/11/10 04:19:10;;;;;;;44.45;28.98;;;153.60;2252.80;;;;;;5079704;28;20004;-83
2021/11/10 04:21:36;;;;;;;47.20;32.03;;;128.70;2252.80;;;;;;5080995;28;20032;-84
2021/11/10 04:24:02;;;;;;;37.75;24.17;;;128.60;2252.80;;;;;;5079185;28;20033;-84
2021/11/10 04:26:32;;;;;;;61.08;39.53;;;128.90;2252.80;;;;;;5076278;28;20048;-85
2021/11/10 04:28:58;;;;;;;39.70;28.88;;;128.90;2252.80;;;;;;5077266;28;20107;-83
2021/11/10 04:31:25;;;;;;;44.08;30.40;;;153.60;2252.80;;;;;;5080329;28;20036;-83
2021/11/10 04:33:52;;;;;;;45.28;32.08;;;128.90;2252.80;;;;;;5081685;28;20590;-82
2021/11/10 04:36:19;;;;;;;51.08;36.47;;;128.90;2252.80;;;;;;5098842;28;20036;-84
2021/11/10 04:38:45;;;;;;;57.17;38.10;;;128.70;2252.80;;;;;;5081447;28;20037;-83
2021/11/10 04:41:11;;;;;;;55.10;34.75;;;128.50;2252.80;;;;;;5091207;28;20392;-85
2021/11/10 04:43:37;;;;;;;44.92;29.30;;;128.70;2252.80;;;;;;5099703;28;20005;-82
2021/11/10 04:48:37;;;;;;;45.33;31.17;;;128.80;2252.80;;;;;;5096984;28;20146;-85
2021/11/10 04:51:07;;;;;;;38.95;30.13;;;128.90;2252.80;;;;;;5077647;28;20028;-86
2021/11/10 04:53:39;;;;;;;44.38;29.67;;;128.60;2252.80;;;;;;5060024;28;20128;-86
2021/11/10 04:56:05;;;;;;;43.25;27.77;;;128.70;2252.80;;;;;;5059827;28;20072;-86
2021/11/10 04:58:32;;;;;;;32.80;23.58;;;128.40;2252.80;;;;;;5059730;28;20035;-85
2021/11/10 05:00:58;;;;;;;30.75;22.15;;;128.80;2252.80;;;;;;5059320;28;20082;-86
2021/11/10 05:03:24;;;;;;;32.40;21.60;;;128.40;2252.80;;;;;;5059382;28;20024;-85
2021/11/10 05:05:50;;;;;;;39.53;26.13;;;128.40;2252.80;;;;;;5077155;28;20021;-86
2021/11/10 05:08:16;;;;;;;30.83;22.92;;;128.10;2252.80;;;;;;5077053;28;20028;-85
2021/11/10 05:10:42;;;;;;;33.40;23.63;;;128.20;2252.80;;;;;;5058319;28;20381;-85
2021/11/10 05:13:08;;;;;;;40.90;27.02;;;128.30;2252.80;;;;;;5077227;28;20029;-86
2021/11/10 05:15:35;;;;;;;49.63;28.23;;;128.10;2252.80;;;;;;5058736;28;20025;-85
2021/11/10 05:18:01;;;;;;;51.50;32.75;;;128.30;2252.80;;;;;;5059104;28;20386;-86
2021/11/10 05:20:27;;;;;;;79.82;50.30;;;128.40;2252.80;;;;;;5076638;28;20028;-86
2021/11/10 05:22:53;;;;;;;91.32;59.08;;;128.20;2252.80;;;;;;5058812;28;20103;-86
2021/11/10 05:25:19;;;;;;;78.82;50.17;;;128.30;2252.80;;;;;;5059047;28;20424;-85
2021/11/10 05:27:45;;;;;;;79.63;50.80;;;128.20;2252.80;;;;;;5058804;28;20025;-86
2021/11/10 05:30:12;;;;;;;61.83;38.50;;;128.30;2252.80;;;;;;5058733;28;20032;-86
2021/11/10 05:32:39;;;;;;;42.10;27.15;;;128.50;2252.80;;;;;;5077028;28;20025;-86
2021/11/10 05:35:06;;;;;;;39.65;25.38;;;103.30;2227.20;;;;;;5058725;28;20021;-86
2021/11/10 05:37:33;;;;;;;38.17;24.63;;;103.10;2227.20;;;;;;5057959;28;20033;-86
2021/11/10 05:39:58;;;;;;;40.22;27.77;;;103.30;2227.20;;;;;;5058344;28;20088;-86
2021/11/10 05:42:26;;;;;;;40.13;26.58;;;128.20;2252.80;;;;;;5058664;28;20028;-85
2021/11/10 05:44:53;;;;;;;54.03;34.17;;;128.10;2252.80;;;;;;5058315;28;20492;-86
2021/11/10 05:47:20;;;;;;;71.93;42.35;;;128.10;2252.80;;;;;;5075907;28;20024;-86
2021/11/10 05:49:46;;;;;;;58.42;37.00;;;128.10;2252.80;;;;;;5058178;28;20033;-86
2021/11/10 05:52:12;;;;;;;60.75;38.03;;;128.30;2252.80;;;;;;5058343;28;20100;-86
2021/11/10 05:54:39;;;;;;;71.82;47.45;;;128.00;2252.80;;;;;;5058605;28;20047;-86
2021/11/10 05:57:07;;;;;;;57.03;33.95;;;103.10;2227.20;;;;;;5076038;28;20016;-86
2021/11/10 05:59:33;;;;;;;50.53;35.00;;;102.90;2227.20;;;;;;5058771;28;20051;-86
2021/11/10 06:02:00;;;;;;;79.90;50.10;;;102.80;2227.20;;;;;;5076266;28;20135;-86
2021/11/10 06:04:27;;;;;;;79.18;51.67;;;102.70;2227.20;;;;;;5058290;28;20393;-86
2021/11/10 06:06:53;;;;;;;69.20;47.90;;;103.00;2227.20;;;;;;5058212;28;20028;-86
2021/11/10 06:09:18;;;;;;;102.32;64.00;;;102.90;2227.20;;;;;;5058160;28;20108;-86
2021/11/10 06:11:45;;;;;;;127.43;74.72;;;103.10;2227.20;;;;;;5057899;28;20037;-86
2021/11/10 06:14:12;;;;;;;83.03;55.17;;;103.20;2227.20;;;;;;5058035;28;20442;-86
2021/11/10 06:16:38;;;;;;;168.65;112.13;;;103.00;2227.20;;;;;;5057857;28;20052;-86
2021/11/10 06:19:04;;;;;;;215.63;144.27;;;102.90;2227.20;;;;;;5057910;28;20089;-86
2021/11/10 06:21:30;;;;;;;70.45;45.72;;;102.80;2227.20;;;;;;5057695;28;20370;-86
2021/11/10 06:23:56;;;;;;;59.80;38.67;;;102.90;2227.20;;;;;;5057834;28;20025;-84
2021/11/10 06:26:22;;;;;;;53.67;34.67;;;103.10;2227.20;;;;;;5057470;28;20029;-85
2021/11/10 06:28:48;;;;;;;60.42;40.30;;;102.80;2227.20;;;;;;5057532;28;20524;-85
2021/11/10 06:31:14;;;;;;;59.50;42.08;;;103.10;2227.20;;;;;;5057357;28;20135;-84
2021/11/10 06:33:40;;;;;;;71.35;46.33;;;103.30;2227.20;;;;;;5075405;28;20043;-85
2021/11/10 06:36:07;;;;;;;97.35;60.03;;;128.00;2252.80;;;;;;5057350;28;20466;-85
2021/11/10 06:38:33;;;;;;;98.28;60.80;;;103.20;2227.20;;;;;;5057005;28;20482;-85
2021/11/10 06:40:59;;;;;;;98.60;63.67;;;128.20;2252.80;;;;;;5057212;28;20029;-85
2021/11/10 06:43:28;;;;;;;101.60;61.80;;;128.20;2252.80;;;;;;5057427;28;20462;-85
2021/11/10 06:45:55;;;;;;;94.45;62.88;;;128.30;2252.80;;;;;;5057291;28;20025;-85
2021/11/10 06:48:21;;;;;;;85.90;56.63;;;128.60;2252.80;;;;;;5056550;28;20028;-86
2021/11/10 06:50:47;;;;;;;100.68;61.17;;;128.60;2252.80;;;;;;5057042;28;20063;-85
2021/11/10 06:53:14;;;;;;;84.22;55.13;;;128.70;2252.80;;;;;;5056846;28;20042;-85
2021/11/10 06:55:40;;;;;;;79.95;55.20;;;128.50;2252.80;;;;;;5075274;28;20024;-85
2021/11/10 06:58:06;;;;;;;89.88;63.92;;;128.20;2252.80;;;;;;5056825;28;20025;-85
2021/11/10 07:00:32;;;;;;;83.13;56.10;;;128.20;2252.80;;;;;;5056655;28;20038;-85
2021/11/10 07:02:58;;;;;;;105.22;73.90;;;128.30;2252.80;;;;;;5056929;28;20358;-85
2021/11/10 07:05:24;;;;;;;107.68;75.43;;;128.60;2252.80;;;;;;5056983;28;20162;-85
2021/11/10 07:07:50;;;;;;;58.75;42.67;;;128.70;2252.80;;;;;;5056692;28;20024;-85
2021/11/10 07:10:17;;;;;;;66.80;43.78;;;128.60;2252.80;;;;;;5056773;28;20028;-86
2021/11/10 07:12:42;;;;;;;54.85;35.45;;;128.70;2252.80;;;;;;5057157;28;20031;-87
2021/11/10 07:15:09;;;;;;;59.65;40.85;;;128.30;2252.80;;;;;;5056715;28;20025;-85
2021/11/10 07:17:35;;;;;;;52.08;35.22;;;128.50;2252.80;;;;;;5074449;28;20496;-85
2021/11/10 07:20:01;;;;;;;62.55;45.28;;;128.60;2252.80;;;;;;5057002;28;20033;-85
2021/11/10 07:22:26;;;;;;;68.47;48.28;;;128.80;2252.80;;;;;;5074662;28;20027;-85
2021/11/10 07:24:52;;;;;;;56.05;36.42;;;128.90;2252.80;;;;;;5056709;28;20029;-85
2021/11/10 07:27:18;;;;;;;52.63;37.47;;;153.70;2252.80;;;;;;5056580;28;20024;-85
2021/11/10 07:29:44;;;;;;;259.83;183.98;;;153.90;2252.80;;;;;;5074450;28;20377;-85
2021/11/10 07:32:10;;;;;;;160.10;118.03;;;153.80;2252.80;;;;;;5056023;28;20093;-85
2021/11/10 07:34:36;;;;;;;89.55;69.82;;;153.80;2252.80;;;;;;5074818;28;20028;-85
2021/11/10 07:37:01;;;;;;;82.35;61.13;;;153.90;2252.80;;;;;;5056275;28;20039;-85
2021/11/10 07:39:29;;;;;;;71.72;51.70;;;153.70;2252.80;;;;;;5056695;28;20048;-84
2021/11/10 07:41:55;;;;;;;86.47;62.50;;;153.60;2252.80;;;;;;5056758;28;20025;-85
2021/11/10 07:44:22;;;;;;;84.00;61.78;;;153.70;2252.80;;;;;;5056261;28;20119;-85
2021/11/10 07:47:05;;;;;;;79.35;52.65;;;153.60;2252.80;;;;;;5056399;28;20028;-85
2021/11/10 07:49:31;;;;;;;76.65;52.97;;;153.70;2252.80;;;;;;5056294;28;20453;-85
2021/11/10 07:51:59;;;;;;;77.88;51.03;;;153.90;2252.80;;;;;;5056371;28;20116;-85
2021/11/10 07:54:25;;;;;;;65.65;47.63;;;153.90;2252.80;;;;;;5056114;28;20024;-85
2021/11/10 07:56:51;;;;;;;54.30;37.78;;;154.00;2252.80;;;;;;5056155;28;20102;-84
2021/11/10 07:59:16;;;;;;;48.67;33.50;;;154.10;2252.80;;;;;;5056274;28;20470;-84
2021/11/10 08:01:42;;;;;;;45.97;32.80;;;154.00;2252.80;;;;;;5056045;28;20082;-85
2021/11/10 08:04:08;;;;;;;40.60;27.60;;;154.10;2252.80;;;;;;5055947;28;20064;-85
2021/11/10 08:06:34;;;;;;;40.63;28.13;;;154.20;2252.80;;;;;;5056284;28;20024;-85
2021/11/10 08:09:01;;;;;;;39.85;28.80;;;154.20;2252.80;;;;;;5056368;28;20025;-84
2021/11/10 08:11:27;;;;;;;46.63;32.95;;;154.50;2252.80;;;;;;5056145;28;20025;-85
2021/11/10 08:13:53;;;;;;;46.13;31.02;;;179.20;2252.80;;;;;;5056272;28;20537;-83
2021/11/10 08:16:19;;;;;;;37.40;27.42;;;179.30;2252.80;;;;;;5074185;28;20025;-84
2021/11/10 08:18:45;;;;;;;34.22;28.67;;;179.40;2252.80;;;;;;5055988;28;20046;-85
2021/11/10 08:21:11;;;;;;;37.17;25.73;;;179.40;2252.80;;;;;;5055897;28;20127;-84
2021/11/10 08:23:37;;;;;;;31.27;25.10;;;179.40;2252.80;;;;;;5056154;28;20025;-85
2021/11/10 08:26:03;;;;;;;36.35;25.00;;;179.40;2252.80;;;;;;5055938;28;20032;-85
2021/11/10 08:28:30;;;;;;;32.15;23.42;;;179.40;2252.80;;;;;;5056045;28;20033;-84
2021/11/10 08:30:56;;;;;;;31.77;26.15;;;179.60;2252.80;;;;;;5073628;28;20024;-83
2021/11/10 08:33:22;;;;;;;32.08;23.48;;;179.40;2252.80;;;;;;5055302;28;20033;-83
2021/11/10 08:35:49;;;;;;;28.80;21.15;;;179.60;2252.80;;;;;;5073482;28;20016;-85
2021/11/10 08:38:17;;;;;;;35.10;25.70;;;179.50;2252.80;;;;;;5055323;28;20044;-83
2021/11/10 08:40:43;;;;;;;33.70;24.02;;;179.40;2252.80;;;;;;5055628;28;20029;-83
2021/11/10 08:43:11;;;;;;;34.63;25.88;;;179.50;2252.80;;;;;;5073724;28;20031;-82
2021/11/10 08:45:39;;;;;;;31.88;23.52;;;179.70;2252.80;;;;;;5077370;28;20016;-84
2021/11/10 08:48:06;;;;;;;33.33;23.35;;;179.80;2252.80;;;;;;5059403;28;20050;-83
2021/11/10 08:50:35;;;;;;;34.88;26.30;;;180.10;2252.80;;;;;;5077096;28;20077;-83
2021/11/10 08:53:03;;;;;;;33.15;24.38;;;180.10;2252.80;;;;;;5059216;28;20086;-82
2021/11/10 08:55:29;;;;;;;34.88;24.95;;;204.80;2252.80;;;;;;5059249;28;20025;-83
2021/11/10 08:57:55;;;;;;;36.60;25.27;;;180.00;2252.80;;;;;;5059202;28;20025;-82
2021/11/10 09:00:25;;;;;;;34.85;25.80;;;180.00;2252.80;;;;;;5059130;28;20435;-80
2021/11/10 09:02:52;;;;;;;37.92;27.15;;;180.10;2252.80;;;;;;5073042;28;20020;-79
2021/11/10 09:05:18;;;;;;;41.45;30.05;;;204.90;2252.80;;;;;;5081748;28;20031;-78
2021/11/10 09:07:44;;;;;;;42.08;30.58;;;205.00;2252.80;;;;;;5079323;28;20025;-79
2021/11/10 09:10:12;;;;;;;44.67;33.22;;;205.00;2252.80;;;;;;5071098;28;20085;-85
2021/11/10 09:12:39;;;;;;;47.20;35.72;;;205.10;2252.80;;;;;;5079076;28;20031;-81
2021/11/10 09:15:07;;;;;;;49.88;35.70;;;205.20;2252.80;;;;;;5077663;28;20429;-81
2021/11/10 09:17:36;;;;;;;56.75;38.85;;;205.30;2252.80;;;;;;5078088;28;20032;-85
2021/11/10 09:20:11;;;;;;;53.53;39.33;;;205.30;2252.80;;;;;;5095706;28;20107;-81
2021/11/10 09:22:38;;;;;;;55.45;43.22;;;205.30;2252.80;;;;;;5066035;28;20075;-80
2021/11/10 09:25:06;;;;;;;68.43;55.00;;;205.50;2252.80;;;;;;5055655;28;20054;-80
2021/11/10 09:27:33;;;;;;;69.32;52.05;;;205.60;2252.80;;;;;;5053156;28;20033;-81
2021/11/10 09:29:59;;;;;;;70.20;54.03;;;205.60;2252.80;;;;;;5076269;28;20025;-81
2021/11/10 09:32:26;;;;;;;64.03;49.97;;;205.70;2252.80;;;;;;5058300;28;20078;-81
2021/11/10 09:34:52;;;;;;;71.35;49.58;;;230.40;2252.80;;;;;;5057872;28;20090;-81
2021/11/10 09:37:19;;;;;;;73.05;52.03;;;230.60;2252.80;;;;;;5058300;28;20028;-81
2021/11/10 09:39:45;;;;;;;63.55;45.22;;;230.70;2252.80;;;;;;5057471;28;20119;-81
2021/11/10 09:42:12;;;;;;;55.40;37.10;;;230.90;2252.80;;;;;;5057909;28;20052;-81
2021/11/10 09:44:40;;;;;;;44.70;31.65;;;231.00;2252.80;;;;;;5057965;28;20461;-81
2021/11/10 09:47:06;;;;;;;33.67;24.40;;;231.20;2252.80;;;;;;5075542;28;20032;-79
2021/11/10 09:49:32;;;;;;;34.08;25.30;;;256.00;2252.80;;;;;;5075513;28;20035;-79
2021/11/10 09:52:00;;;;;;;38.78;28.17;;;231.30;2252.80;;;;;;5075504;28;20183;-78
2021/11/10 09:54:26;;;;;;;36.17;25.52;;;256.00;2252.80;;;;;;5075793;28;20048;-79
2021/11/10 09:56:54;;;;;;;39.63;27.77;;;256.20;2252.80;;;;;;5058091;28;20035;-79
2021/11/10 09:59:21;;;;;;;37.50;27.13;;;256.30;2252.80;;;;;;5056508;28;20054;-79
2021/11/10 10:01:47;;;;;;;30.13;21.52;;;256.30;2252.80;;;;;;5074586;28;20040;-78
2021/11/10 10:04:14;;;;;;;25.23;19.80;;;256.40;2252.80;;;;;;5055443;28;20024;-78
2021/11/10 10:06:41;;;;;;;24.88;19.80;;;256.50;2252.80;;;;;;5056517;28;20385;-78
2021/11/10 10:09:07;;;;;;;20.08;16.38;;;256.60;2252.80;;;;;;5056079;28;20032;-77
2021/11/10 10:11:34;;;;;;;24.58;15.60;;;256.50;2252.80;;;;;;5073949;28;20039;-78
2021/11/10 10:14:00;;;;;;;21.98;17.85;;;256.60;2252.80;;;;;;5074497;28;20103;-77
2021/11/10 10:16:28;;;;;;;27.48;19.30;;;256.70;2252.80;;;;;;5073638;28;20031;-78
2021/11/10 10:19:08;;;;;;;22.67;16.73;;;256.70;2252.80;;;;;;5055565;28;20063;-78
2021/11/10 10:21:39;;;;;;;24.70;17.13;;;256.80;2252.80;;;;;;5056232;28;20038;-79
2021/11/10 10:24:07;;;;;;;25.85;19.27;;;256.90;2252.80;;;;;;5056043;28;20466;-78
2021/11/10 10:26:33;;;;;;;40.53;28.35;;;256.90;2252.80;;;;;;5055791;28;20384;-79
2021/11/10 10:29:08;;;;;;;37.60;25.73;;;281.60;2278.40;;;;;;5074154;28;20082;-78
2021/11/10 10:31:36;;;;;;;59.55;41.83;;;281.60;2278.40;;;;;;5074383;28;20024;-79
2021/11/10 10:34:11;;;;;;;36.67;28.10;;;281.70;2278.40;;;;;;5056940;28;20523;-78
2021/11/10 10:36:41;;;;;;;35.95;25.05;;;281.80;2278.40;;;;;;5056976;28;20120;-77
2021/11/10 10:39:15;;;;;;;30.45;24.15;;;281.90;2278.40;;;;;;5063911;28;20135;-76
2021/11/10 10:41:44;;;;;;;37.00;26.20;;;281.90;2278.40;;;;;;5074653;28;20038;-77
2021/11/10 10:44:13;;;;;;;41.97;30.63;;;282.00;2278.40;;;;;;5073237;28;20033;-78
2021/11/10 10:46:42;;;;;;;35.47;26.65;;;282.10;2278.40;;;;;;5074466;28;20017;-81
2021/11/10 10:49:40;;;;;;;38.15;28.13;;;282.10;2278.40;;;;;;5073651;28;20025;-81
2021/11/10 10:52:18;;;;;;;36.70;28.67;;;282.20;2278.40;;;;;;5073439;28;20064;-81
2021/11/10 10:54:46;;;;;;;40.13;28.05;;;282.30;2278.40;;;;;;5073361;28;20033;-81
2021/11/10 10:57:18;;;;;;;30.38;22.58;;;282.40;2278.40;;;;;;5074132;28;20039;-81
2021/11/10 10:59:44;;;;;;;55.17;41.70;;;282.50;2278.40;;;;;;5073311;28;20025;-81
2021/11/10 11:02:10;;;;;;;40.67;33.83;;;282.50;2278.40;;;;;;5073970;28;20103;-81
2021/11/10 11:04:43;;;;;;;19.05;16.02;;;307.20;2304.00;;;;;;5073357;28;20028;-81
2021/11/10 11:07:09;;;;;;;;;;;307.30;2304.00;;;;;;5072513;28;20082;-81
2021/11/10 11:09:42;;;;;;;19.30;15.10;;;307.30;2304.00;;;;;;5072996;28;19904;-81
2021/11/10 11:12:28;;;;;;;18.88;12.90;;;307.40;2304.00;;;;;;5072728;28;20031;-81
2021/11/10 11:15:36;;;;;;;23.60;16.23;;;307.50;2304.00;;;;;;5073347;28;20112;-81
2021/11/10 11:18:02;;;;;;;19.52;12.63;;;307.60;2304.00;;;;;;5074342;28;20483;-81
2021/11/10 11:20:34;;;;;;;23.55;16.48;;;307.60;2304.00;;;;;;5072288;28;20032;-81
2021/11/10 11:23:02;;;;;;;20.95;14.60;;;307.60;2304.00;;;;;;5072930;28;20385;-81
2021/11/10 11:25:39;;;;;;;32.45;20.48;;;307.70;2304.00;;;;;;5072760;28;20108;-81
2021/11/10 11:28:15;;;;;;;26.88;21.63;;;307.80;2304.00;;;;;;5073671;28;20047;-82
2021/11/10 11:30:58;;;;;;;26.90;23.48;;;307.80;2304.00;;;;;;5072612;28;20039;-82
2021/11/10 11:33:28;;;;;;;27.13;21.43;;;307.90;2304.00;;;;;;5072341;28;20029;-81
2021/11/10 11:35:56;;;;;;;30.85;24.10;;;307.90;2304.00;;;;;;5072538;28;20024;-81
2021/11/10 11:38:28;;;;;;;14.95;11.65;;;308.00;2304.00;;;;;;5072060;28;20393;-82
2021/11/10 11:40:57;;;;;;;16.45;11.77;;;308.00;2304.00;;;;;;5073440;28;20032;-81
2021/11/10 11:43:25;;;;;;;18.13;13.20;;;308.10;2304.00;;;;;;5073435;28;20025;-81
2021/11/10 11:45:53;;;;;;;28.75;20.08;;;308.10;2304.00;;;;;;5073863;28;20025;-82
2021/11/10 11:48:21;;;;;;;29.38;22.15;;;308.10;2304.00;;;;;;5071827;28;20120;-81
2021/11/10 11:50:49;;;;;;;17.00;13.57;;;332.80;2329.60;;;;;;5072331;28;20035;-82
2021/11/10 11:53:15;;;;;;;17.15;12.55;;;332.80;2329.60;;;;;;5072374;28;20055;-81
2021/11/10 11:55:43;;;;;;;25.17;18.55;;;332.90;2329.60;;;;;;5072295;28;20028;-81
2021/11/10 11:58:39;;;;;;;23.05;15.68;;;332.90;2329.60;;;;;;5072276;28;20025;-79
2021/11/10 12:01:08;;;;;;;35.13;20.77;;;332.90;2329.60;;;;;;5066683;28;20037;-79